sensor_id;sensor_type;location;lat;lon;timestamp;P1;durP1;ratioP1;P2;durP2;ratioP2
23282;SDS011;11810;51.178;3.878;2023-03-01T00:00:39;17.35;;;12.88;;
23282;SDS011;11810;51.178;3.878;2023-03-01T00:03:06;20.73;;;13.73;;
23282;SDS011;11810;51.178;3.878;2023-03-01T00:05:32;26.85;;;16.02;;
23282;SDS011;11810;51.178;3.878;2023-03-01T00:07:58;25.95;;;16.17;;
23282;SDS011;11810;51.178;3.878;2023-03-01T00:10:24;26.25;;;15.52;;
23282;SDS011;11810;51.178;3.878;2023-03-01T00:12:50;27.70;;;16.60;;
23282;SDS011;11810;51.178;3.878;2023-03-01T00:15:16;24.98;;;15.50;;
23282;SDS011;11810;51.178;3.878;2023-03-01T00:17:42;20.75;;;14.82;;
23282;SDS011;11810;51.178;3.878;2023-03-01T00:20:08;24.75;;;15.55;;
23282;SDS011;11810;51.178;3.878;2023-03-01T00:22:35;22.98;;;15.43;;
23282;SDS011;11810;51.178;3.878;2023-03-01T00:25:02;22.95;;;14.55;;
23282;SDS011;11810;51.178;3.878;2023-03-01T00:27:29;22.02;;;14.10;;
23282;SDS011;11810;51.178;3.878;2023-03-01T00:29:54;24.38;;;14.65;;
23282;SDS011;11810;51.178;3.878;2023-03-01T00:33:57;20.65;;;13.20;;
23282;SDS011;11810;51.178;3.878;2023-03-01T00:36:25;21.50;;;13.73;;
23282;SDS011;11810;51.178;3.878;2023-03-01T00:39:00;20.13;;;13.82;;
23282;SDS011;11810;51.178;3.878;2023-03-01T00:41:57;24.55;;;13.70;;
23282;SDS011;11810;51.178;3.878;2023-03-01T00:44:23;17.38;;;12.73;;
23282;SDS011;11810;51.178;3.878;2023-03-01T00:46:56;19.45;;;13.98;;
23282;SDS011;11810;51.178;3.878;2023-03-01T00:49:22;20.92;;;14.30;;
23282;SDS011;11810;51.178;3.878;2023-03-01T00:51:49;28.08;;;14.95;;
23282;SDS011;11810;51.178;3.878;2023-03-01T00:54:15;20.58;;;14.48;;
23282;SDS011;11810;51.178;3.878;2023-03-01T00:56:41;24.83;;;15.32;;
23282;SDS011;11810;51.178;3.878;2023-03-01T00:59:07;23.65;;;14.07;;
23282;SDS011;11810;51.178;3.878;2023-03-01T01:01:58;22.67;;;15.82;;
23282;SDS011;11810;51.178;3.878;2023-03-01T01:05:58;25.52;;;16.65;;
23282;SDS011;11810;51.178;3.878;2023-03-01T01:08:24;26.48;;;14.95;;
23282;SDS011;11810;51.178;3.878;2023-03-01T01:10:50;25.08;;;14.80;;
23282;SDS011;11810;51.178;3.878;2023-03-01T01:13:50;21.98;;;16.20;;
23282;SDS011;11810;51.178;3.878;2023-03-01T01:16:17;23.63;;;15.02;;
23282;SDS011;11810;51.178;3.878;2023-03-01T01:18:44;26.65;;;16.25;;
23282;SDS011;11810;51.178;3.878;2023-03-01T01:21:11;23.40;;;15.88;;
23282;SDS011;11810;51.178;3.878;2023-03-01T01:23:39;24.70;;;16.33;;
23282;SDS011;11810;51.178;3.878;2023-03-01T01:26:07;22.95;;;16.40;;
23282;SDS011;11810;51.178;3.878;2023-03-01T01:28:34;24.02;;;16.23;;
23282;SDS011;11810;51.178;3.878;2023-03-01T01:31:01;25.23;;;16.25;;
23282;SDS011;11810;51.178;3.878;2023-03-01T01:34:03;28.20;;;17.20;;
23282;SDS011;11810;51.178;3.878;2023-03-01T01:36:31;26.70;;;16.13;;
23282;SDS011;11810;51.178;3.878;2023-03-01T01:38:57;30.38;;;17.33;;
23282;SDS011;11810;51.178;3.878;2023-03-01T01:41:24;27.63;;;17.20;;
23282;SDS011;11810;51.178;3.878;2023-03-01T01:48:46;34.80;;;19.73;;
23282;SDS011;11810;51.178;3.878;2023-03-01T01:53:05;31.20;;;17.85;;
23282;SDS011;11810;51.178;3.878;2023-03-01T01:55:39;27.40;;;17.40;;
23282;SDS011;11810;51.178;3.878;2023-03-01T01:58:08;26.83;;;17.15;;
23282;SDS011;11810;51.178;3.878;2023-03-01T02:00:37;27.58;;;18.90;;
23282;SDS011;11810;51.178;3.878;2023-03-01T02:03:11;28.52;;;18.25;;
23282;SDS011;11810;51.178;3.878;2023-03-01T02:07:16;29.23;;;18.98;;
23282;SDS011;11810;51.178;3.878;2023-03-01T02:09:47;32.80;;;19.70;;
23282;SDS011;11810;51.178;3.878;2023-03-01T02:12:15;30.42;;;18.80;;
23282;SDS011;11810;51.178;3.878;2023-03-01T02:14:43;35.20;;;21.05;;
23282;SDS011;11810;51.178;3.878;2023-03-01T02:17:10;30.75;;;20.15;;
23282;SDS011;11810;51.178;3.878;2023-03-01T02:22:23;36.58;;;20.80;;
23282;SDS011;11810;51.178;3.878;2023-03-01T02:31:10;35.60;;;21.90;;
23282;SDS011;11810;51.178;3.878;2023-03-01T02:36:10;32.53;;;21.02;;
23282;SDS011;11810;51.178;3.878;2023-03-01T02:39:12;38.72;;;23.65;;
23282;SDS011;11810;51.178;3.878;2023-03-01T02:41:46;35.13;;;23.02;;
23282;SDS011;11810;51.178;3.878;2023-03-01T02:45:07;37.65;;;23.80;;
23282;SDS011;11810;51.178;3.878;2023-03-01T02:49:18;38.15;;;23.33;;
23282;SDS011;11810;51.178;3.878;2023-03-01T02:56:12;41.72;;;24.05;;
23282;SDS011;11810;51.178;3.878;2023-03-01T02:59:12;40.63;;;24.25;;
23282;SDS011;11810;51.178;3.878;2023-03-01T03:01:38;41.13;;;25.42;;
23282;SDS011;11810;51.178;3.878;2023-03-01T03:04:08;44.38;;;24.23;;
23282;SDS011;11810;51.178;3.878;2023-03-01T03:11:15;48.17;;;27.00;;
23282;SDS011;11810;51.178;3.878;2023-03-01T03:13:41;44.15;;;26.60;;
23282;SDS011;11810;51.178;3.878;2023-03-01T03:16:13;46.60;;;26.42;;
23282;SDS011;11810;51.178;3.878;2023-03-01T03:18:39;48.80;;;25.75;;
23282;SDS011;11810;51.178;3.878;2023-03-01T03:21:09;50.95;;;27.08;;
23282;SDS011;11810;51.178;3.878;2023-03-01T03:23:37;49.10;;;27.50;;
23282;SDS011;11810;51.178;3.878;2023-03-01T03:26:15;52.75;;;29.38;;
23282;SDS011;11810;51.178;3.878;2023-03-01T03:29:16;54.28;;;29.40;;
23282;SDS011;11810;51.178;3.878;2023-03-01T03:31:42;52.65;;;28.98;;
23282;SDS011;11810;51.178;3.878;2023-03-01T03:34:08;49.20;;;27.73;;
23282;SDS011;11810;51.178;3.878;2023-03-01T03:36:42;51.80;;;29.63;;
23282;SDS011;11810;51.178;3.878;2023-03-01T03:39:08;45.03;;;27.50;;
23282;SDS011;11810;51.178;3.878;2023-03-01T03:41:34;48.72;;;27.35;;
23282;SDS011;11810;51.178;3.878;2023-03-01T03:44:00;47.35;;;27.00;;
23282;SDS011;11810;51.178;3.878;2023-03-01T03:46:26;59.60;;;30.05;;
23282;SDS011;11810;51.178;3.878;2023-03-01T03:48:52;54.17;;;29.50;;
23282;SDS011;11810;51.178;3.878;2023-03-01T03:51:18;45.97;;;27.13;;
23282;SDS011;11810;51.178;3.878;2023-03-01T03:53:44;51.95;;;28.70;;
23282;SDS011;11810;51.178;3.878;2023-03-01T03:57:18;55.42;;;29.90;;
23282;SDS011;11810;51.178;3.878;2023-03-01T03:59:46;48.53;;;29.05;;
23282;SDS011;11810;51.178;3.878;2023-03-01T04:02:12;53.72;;;29.55;;
23282;SDS011;11810;51.178;3.878;2023-03-01T04:04:38;54.90;;;30.80;;
23282;SDS011;11810;51.178;3.878;2023-03-01T04:07:03;49.15;;;28.35;;
23282;SDS011;11810;51.178;3.878;2023-03-01T04:09:29;57.03;;;29.98;;
23282;SDS011;11810;51.178;3.878;2023-03-01T04:12:21;50.13;;;28.48;;
23282;SDS011;11810;51.178;3.878;2023-03-01T04:14:48;50.88;;;28.20;;
23282;SDS011;11810;51.178;3.878;2023-03-01T04:17:14;50.85;;;28.42;;
23282;SDS011;11810;51.178;3.878;2023-03-01T04:19:40;44.55;;;26.38;;
23282;SDS011;11810;51.178;3.878;2023-03-01T04:22:09;47.97;;;25.70;;
23282;SDS011;11810;51.178;3.878;2023-03-01T04:24:36;48.50;;;26.50;;
23282;SDS011;11810;51.178;3.878;2023-03-01T04:27:02;46.47;;;26.40;;
23282;SDS011;11810;51.178;3.878;2023-03-01T04:31:23;47.03;;;26.63;;
23282;SDS011;11810;51.178;3.878;2023-03-01T04:38:26;46.38;;;25.75;;
23282;SDS011;11810;51.178;3.878;2023-03-01T04:40:52;39.38;;;23.95;;
23282;SDS011;11810;51.178;3.878;2023-03-01T04:43:18;46.53;;;26.08;;
23282;SDS011;11810;51.178;3.878;2023-03-01T04:48:24;40.30;;;25.00;;
23282;SDS011;11810;51.178;3.878;2023-03-01T04:55:16;51.30;;;24.35;;
23282;SDS011;11810;51.178;3.878;2023-03-01T04:57:42;44.72;;;25.42;;
23282;SDS011;11810;51.178;3.878;2023-03-01T05:05:28;43.42;;;25.00;;
23282;SDS011;11810;51.178;3.878;2023-03-01T05:07:57;47.13;;;26.15;;
23282;SDS011;11810;51.178;3.878;2023-03-01T05:11:28;47.53;;;27.05;;
23282;SDS011;11810;51.178;3.878;2023-03-01T05:14:28;49.97;;;27.90;;
23282;SDS011;11810;51.178;3.878;2023-03-01T05:16:54;53.88;;;29.65;;
23282;SDS011;11810;51.178;3.878;2023-03-01T05:19:20;54.00;;;28.83;;
23282;SDS011;11810;51.178;3.878;2023-03-01T05:21:47;53.15;;;28.00;;
23282;SDS011;11810;51.178;3.878;2023-03-01T05:26:29;48.15;;;27.02;;
23282;SDS011;11810;51.178;3.878;2023-03-01T05:30:34;47.83;;;26.17;;
23282;SDS011;11810;51.178;3.878;2023-03-01T05:33:00;50.17;;;28.63;;
23282;SDS011;11810;51.178;3.878;2023-03-01T05:35:26;53.30;;;28.95;;
23282;SDS011;11810;51.178;3.878;2023-03-01T05:37:53;54.45;;;29.00;;
23282;SDS011;11810;51.178;3.878;2023-03-01T05:40:20;52.33;;;27.75;;
23282;SDS011;11810;51.178;3.878;2023-03-01T05:42:52;46.45;;;27.45;;
23282;SDS011;11810;51.178;3.878;2023-03-01T05:45:21;52.20;;;27.15;;
23282;SDS011;11810;51.178;3.878;2023-03-01T05:47:49;51.45;;;26.33;;
23282;SDS011;11810;51.178;3.878;2023-03-01T05:50:26;50.92;;;27.70;;
23282;SDS011;11810;51.178;3.878;2023-03-01T05:53:00;49.03;;;27.00;;
23282;SDS011;11810;51.178;3.878;2023-03-01T05:57:33;47.28;;;25.30;;
23282;SDS011;11810;51.178;3.878;2023-03-01T06:01:34;45.40;;;23.83;;
23282;SDS011;11810;51.178;3.878;2023-03-01T06:04:01;47.30;;;24.90;;
23282;SDS011;11810;51.178;3.878;2023-03-01T06:08:17;44.75;;;25.42;;
23282;SDS011;11810;51.178;3.878;2023-03-01T06:10:45;55.53;;;26.63;;
23282;SDS011;11810;51.178;3.878;2023-03-01T06:13:12;44.40;;;25.58;;
23282;SDS011;11810;51.178;3.878;2023-03-01T06:17:36;44.13;;;24.15;;
23282;SDS011;11810;51.178;3.878;2023-03-01T06:20:05;47.25;;;25.55;;
23282;SDS011;11810;51.178;3.878;2023-03-01T06:22:36;44.85;;;25.98;;
23282;SDS011;11810;51.178;3.878;2023-03-01T06:25:02;46.90;;;24.90;;
23282;SDS011;11810;51.178;3.878;2023-03-01T06:29:37;51.05;;;24.17;;
23282;SDS011;11810;51.178;3.878;2023-03-01T06:33:37;46.38;;;23.08;;
23282;SDS011;11810;51.178;3.878;2023-03-01T06:38:14;44.92;;;22.45;;
23282;SDS011;11810;51.178;3.878;2023-03-01T06:40:42;38.58;;;22.40;;
23282;SDS011;11810;51.178;3.878;2023-03-01T06:43:08;44.40;;;24.35;;
23282;SDS011;11810;51.178;3.878;2023-03-01T06:45:34;48.15;;;25.33;;
23282;SDS011;11810;51.178;3.878;2023-03-01T06:48:12;49.95;;;23.73;;
23282;SDS011;11810;51.178;3.878;2023-03-01T06:50:38;44.17;;;24.15;;
23282;SDS011;11810;51.178;3.878;2023-03-01T06:55:40;45.22;;;24.50;;
23282;SDS011;11810;51.178;3.878;2023-03-01T06:58:06;42.45;;;24.75;;
23282;SDS011;11810;51.178;3.878;2023-03-01T07:00:34;48.47;;;24.48;;
23282;SDS011;11810;51.178;3.878;2023-03-01T07:03:41;43.47;;;23.55;;
23282;SDS011;11810;51.178;3.878;2023-03-01T07:06:09;39.55;;;22.98;;
23282;SDS011;11810;51.178;3.878;2023-03-01T07:08:35;43.35;;;23.85;;
23282;SDS011;11810;51.178;3.878;2023-03-01T07:11:42;37.70;;;22.67;;
23282;SDS011;11810;51.178;3.878;2023-03-01T07:14:08;41.92;;;21.90;;
23282;SDS011;11810;51.178;3.878;2023-03-01T07:16:33;37.88;;;21.42;;
23282;SDS011;11810;51.178;3.878;2023-03-01T07:18:59;39.83;;;21.88;;
23282;SDS011;11810;51.178;3.878;2023-03-01T07:21:25;37.78;;;20.48;;
23282;SDS011;11810;51.178;3.878;2023-03-01T07:23:51;35.40;;;20.40;;
23282;SDS011;11810;51.178;3.878;2023-03-01T07:26:17;30.80;;;19.50;;
23282;SDS011;11810;51.178;3.878;2023-03-01T07:28:43;34.30;;;19.77;;
23282;SDS011;11810;51.178;3.878;2023-03-01T07:31:09;33.58;;;19.23;;
23282;SDS011;11810;51.178;3.878;2023-03-01T07:33:35;30.77;;;18.73;;
23282;SDS011;11810;51.178;3.878;2023-03-01T07:37:46;30.33;;;15.88;;
23282;SDS011;11810;51.178;3.878;2023-03-01T07:40:12;22.17;;;14.38;;
23282;SDS011;11810;51.178;3.878;2023-03-01T07:42:39;18.45;;;13.05;;
23282;SDS011;11810;51.178;3.878;2023-03-01T07:45:05;18.15;;;12.05;;
23282;SDS011;11810;51.178;3.878;2023-03-01T07:47:32;20.17;;;12.13;;
23282;SDS011;11810;51.178;3.878;2023-03-01T07:49:58;20.23;;;11.63;;
23282;SDS011;11810;51.178;3.878;2023-03-01T07:52:24;16.42;;;10.43;;
23282;SDS011;11810;51.178;3.878;2023-03-01T07:54:50;14.90;;;10.40;;
23282;SDS011;11810;51.178;3.878;2023-03-01T07:57:16;13.30;;;10.05;;
23282;SDS011;11810;51.178;3.878;2023-03-01T07:59:42;14.50;;;10.55;;
23282;SDS011;11810;51.178;3.878;2023-03-01T08:02:08;15.77;;;9.93;;
23282;SDS011;11810;51.178;3.878;2023-03-01T08:04:35;15.98;;;10.43;;
23282;SDS011;11810;51.178;3.878;2023-03-01T08:07:01;12.55;;;10.05;;
23282;SDS011;11810;51.178;3.878;2023-03-01T08:09:29;12.23;;;9.40;;
23282;SDS011;11810;51.178;3.878;2023-03-01T08:11:56;14.63;;;9.57;;
23282;SDS011;11810;51.178;3.878;2023-03-01T08:14:24;14.00;;;9.48;;
23282;SDS011;11810;51.178;3.878;2023-03-01T08:16:50;10.77;;;9.15;;
23282;SDS011;11810;51.178;3.878;2023-03-01T08:19:16;12.10;;;9.50;;
23282;SDS011;11810;51.178;3.878;2023-03-01T08:21:42;15.00;;;9.55;;
23282;SDS011;11810;51.178;3.878;2023-03-01T08:24:08;11.20;;;9.10;;
23282;SDS011;11810;51.178;3.878;2023-03-01T08:26:37;13.15;;;8.82;;
23282;SDS011;11810;51.178;3.878;2023-03-01T08:29:03;12.40;;;8.73;;
23282;SDS011;11810;51.178;3.878;2023-03-01T08:31:31;14.93;;;9.57;;
23282;SDS011;11810;51.178;3.878;2023-03-01T08:34:01;12.38;;;9.38;;
23282;SDS011;11810;51.178;3.878;2023-03-01T08:36:31;13.50;;;10.25;;
23282;SDS011;11810;51.178;3.878;2023-03-01T08:39:00;13.75;;;10.23;;
23282;SDS011;11810;51.178;3.878;2023-03-01T08:41:26;14.77;;;10.20;;
23282;SDS011;11810;51.178;3.878;2023-03-01T08:43:52;15.32;;;9.38;;
23282;SDS011;11810;51.178;3.878;2023-03-01T08:46:24;14.25;;;10.13;;
23282;SDS011;11810;51.178;3.878;2023-03-01T08:48:53;15.60;;;9.77;;
23282;SDS011;11810;51.178;3.878;2023-03-01T08:51:19;15.10;;;10.07;;
23282;SDS011;11810;51.178;3.878;2023-03-01T08:53:46;14.10;;;9.55;;
23282;SDS011;11810;51.178;3.878;2023-03-01T08:56:12;14.77;;;10.27;;
23282;SDS011;11810;51.178;3.878;2023-03-01T08:58:38;14.98;;;10.70;;
23282;SDS011;11810;51.178;3.878;2023-03-01T09:01:08;17.08;;;10.57;;
23282;SDS011;11810;51.178;3.878;2023-03-01T09:03:36;16.27;;;10.63;;
23282;SDS011;11810;51.178;3.878;2023-03-01T09:06:04;11.85;;;9.05;;
23282;SDS011;11810;51.178;3.878;2023-03-01T09:08:35;13.07;;;9.00;;
23282;SDS011;11810;51.178;3.878;2023-03-01T09:11:10;14.77;;;9.07;;
23282;SDS011;11810;51.178;3.878;2023-03-01T09:13:37;15.68;;;9.80;;
23282;SDS011;11810;51.178;3.878;2023-03-01T09:16:05;14.20;;;9.80;;
23282;SDS011;11810;51.178;3.878;2023-03-01T09:18:32;11.93;;;8.95;;
23282;SDS011;11810;51.178;3.878;2023-03-01T09:21:32;14.45;;;9.30;;
23282;SDS011;11810;51.178;3.878;2023-03-01T09:23:51;13.05;;;8.50;;
23282;SDS011;11810;51.178;3.878;2023-03-01T09:26:18;10.77;;;8.38;;
23282;SDS011;11810;51.178;3.878;2023-03-01T09:28:47;14.38;;;9.60;;
23282;SDS011;11810;51.178;3.878;2023-03-01T09:31:14;12.48;;;8.25;;
23282;SDS011;11810;51.178;3.878;2023-03-01T09:33:40;10.57;;;8.40;;
23282;SDS011;11810;51.178;3.878;2023-03-01T09:36:08;12.60;;;8.20;;
23282;SDS011;11810;51.178;3.878;2023-03-01T09:38:38;12.60;;;8.20;;
23282;SDS011;11810;51.178;3.878;2023-03-01T09:41:28;11.65;;;8.52;;
23282;SDS011;11810;51.178;3.878;2023-03-01T09:46:52;12.88;;;8.57;;
23282;SDS011;11810;51.178;3.878;2023-03-01T09:49:19;10.57;;;7.82;;
23282;SDS011;11810;51.178;3.878;2023-03-01T09:52:50;10.43;;;7.50;;
23282;SDS011;11810;51.178;3.878;2023-03-01T09:55:11;10.23;;;7.82;;
23282;SDS011;11810;51.178;3.878;2023-03-01T10:00:30;11.73;;;7.60;;
23282;SDS011;11810;51.178;3.878;2023-03-01T10:03:10;9.05;;;7.18;;
23282;SDS011;11810;51.178;3.878;2023-03-01T10:11:17;11.68;;;6.78;;
23282;SDS011;11810;51.178;3.878;2023-03-01T10:16:28;8.82;;;6.45;;
23282;SDS011;11810;51.178;3.878;2023-03-01T10:19:13;8.05;;;6.38;;
23282;SDS011;11810;51.178;3.878;2023-03-01T10:21:48;9.45;;;7.20;;
23282;SDS011;11810;51.178;3.878;2023-03-01T10:24:17;11.25;;;6.47;;
23282;SDS011;11810;51.178;3.878;2023-03-01T10:27:00;9.77;;;6.18;;
23282;SDS011;11810;51.178;3.878;2023-03-01T10:29:30;9.57;;;5.88;;
23282;SDS011;11810;51.178;3.878;2023-03-01T10:32:02;8.10;;;5.28;;
23282;SDS011;11810;51.178;3.878;2023-03-01T10:34:33;8.60;;;5.80;;
23282;SDS011;11810;51.178;3.878;2023-03-01T10:37:16;8.05;;;5.75;;
23282;SDS011;11810;51.178;3.878;2023-03-01T10:40:07;10.38;;;7.03;;
23282;SDS011;11810;51.178;3.878;2023-03-01T10:43:10;11.27;;;6.55;;
23282;SDS011;11810;51.178;3.878;2023-03-01T10:50:29;9.88;;;5.80;;
23282;SDS011;11810;51.178;3.878;2023-03-01T10:52:59;9.45;;;6.40;;
23282;SDS011;11810;51.178;3.878;2023-03-01T10:55:29;7.03;;;5.97;;
23282;SDS011;11810;51.178;3.878;2023-03-01T11:00:50;7.68;;;5.75;;
23282;SDS011;11810;51.178;3.878;2023-03-01T11:03:25;7.45;;;5.82;;
23282;SDS011;11810;51.178;3.878;2023-03-01T11:05:54;11.13;;;5.95;;
23282;SDS011;11810;51.178;3.878;2023-03-01T11:08:29;7.20;;;5.85;;
23282;SDS011;11810;51.178;3.878;2023-03-01T11:11:04;7.75;;;5.53;;
23282;SDS011;11810;51.178;3.878;2023-03-01T11:13:59;7.15;;;6.10;;
23282;SDS011;11810;51.178;3.878;2023-03-01T11:16:35;7.63;;;5.70;;
23282;SDS011;11810;51.178;3.878;2023-03-01T11:21:39;7.53;;;6.35;;
23282;SDS011;11810;51.178;3.878;2023-03-01T11:24:21;9.88;;;5.60;;
23282;SDS011;11810;51.178;3.878;2023-03-01T11:26:54;10.15;;;6.20;;
23282;SDS011;11810;51.178;3.878;2023-03-01T11:29:26;14.40;;;7.55;;
23282;SDS011;11810;51.178;3.878;2023-03-01T11:32:00;7.80;;;6.28;;
23282;SDS011;11810;51.178;3.878;2023-03-01T11:34:40;10.55;;;6.57;;
23282;SDS011;11810;51.178;3.878;2023-03-01T11:37:38;7.07;;;5.82;;
23282;SDS011;11810;51.178;3.878;2023-03-01T11:40:16;9.02;;;5.75;;
23282;SDS011;11810;51.178;3.878;2023-03-01T11:51:05;8.52;;;5.72;;
23282;SDS011;11810;51.178;3.878;2023-03-01T11:53:52;9.80;;;6.15;;
23282;SDS011;11810;51.178;3.878;2023-03-01T11:56:34;7.10;;;5.38;;
23282;SDS011;11810;51.178;3.878;2023-03-01T11:59:19;7.10;;;5.18;;
23282;SDS011;11810;51.178;3.878;2023-03-01T12:01:59;7.55;;;5.93;;
23282;SDS011;11810;51.178;3.878;2023-03-01T12:07:20;8.75;;;5.45;;
23282;SDS011;11810;51.178;3.878;2023-03-01T12:18:54;8.23;;;5.88;;
23282;SDS011;11810;51.178;3.878;2023-03-01T12:21:42;8.32;;;6.00;;
23282;SDS011;11810;51.178;3.878;2023-03-01T12:24:47;7.72;;;5.72;;
23282;SDS011;11810;51.178;3.878;2023-03-01T12:27:42;8.27;;;5.93;;
23282;SDS011;11810;51.178;3.878;2023-03-01T12:41:59;8.27;;;5.82;;
23282;SDS011;11810;51.178;3.878;2023-03-01T12:44:35;8.82;;;6.32;;
23282;SDS011;11810;51.178;3.878;2023-03-01T12:47:05;7.90;;;6.00;;
23282;SDS011;11810;51.178;3.878;2023-03-01T12:49:52;10.73;;;6.10;;
23282;SDS011;11810;51.178;3.878;2023-03-01T13:06:35;10.15;;;6.25;;
23282;SDS011;11810;51.178;3.878;2023-03-01T13:17:48;10.38;;;6.60;;
23282;SDS011;11810;51.178;3.878;2023-03-01T13:21:06;12.77;;;6.70;;
23282;SDS011;11810;51.178;3.878;2023-03-01T13:31:04;9.15;;;6.55;;
23282;SDS011;11810;51.178;3.878;2023-03-01T13:36:01;11.82;;;7.40;;
23282;SDS011;11810;51.178;3.878;2023-03-01T13:41:16;8.07;;;6.80;;
23282;SDS011;11810;51.178;3.878;2023-03-01T13:44:02;12.80;;;7.20;;
23282;SDS011;11810;51.178;3.878;2023-03-01T13:46:43;8.52;;;6.70;;
23282;SDS011;11810;51.178;3.878;2023-03-01T13:49:20;8.95;;;7.05;;
23282;SDS011;11810;51.178;3.878;2023-03-01T13:51:49;9.52;;;6.43;;
23282;SDS011;11810;51.178;3.878;2023-03-01T13:54:17;9.25;;;6.75;;
23282;SDS011;11810;51.178;3.878;2023-03-01T13:56:55;11.02;;;6.57;;
23282;SDS011;11810;51.178;3.878;2023-03-01T13:59:23;9.95;;;6.93;;
23282;SDS011;11810;51.178;3.878;2023-03-01T14:01:54;11.05;;;6.65;;
23282;SDS011;11810;51.178;3.878;2023-03-01T14:07:18;9.13;;;6.53;;
23282;SDS011;11810;51.178;3.878;2023-03-01T14:09:47;10.25;;;6.97;;
23282;SDS011;11810;51.178;3.878;2023-03-01T14:15:22;9.85;;;6.03;;
23282;SDS011;11810;51.178;3.878;2023-03-01T14:18:17;10.38;;;6.18;;
23282;SDS011;11810;51.178;3.878;2023-03-01T14:21:07;10.63;;;7.03;;
23282;SDS011;11810;51.178;3.878;2023-03-01T14:23:33;9.05;;;6.32;;
23282;SDS011;11810;51.178;3.878;2023-03-01T14:26:01;10.32;;;6.65;;
23282;SDS011;11810;51.178;3.878;2023-03-01T14:28:29;10.85;;;6.05;;
23282;SDS011;11810;51.178;3.878;2023-03-01T14:30:59;9.07;;;6.85;;
23282;SDS011;11810;51.178;3.878;2023-03-01T14:33:30;10.38;;;7.00;;
23282;SDS011;11810;51.178;3.878;2023-03-01T14:38:38;9.70;;;6.88;;
23282;SDS011;11810;51.178;3.878;2023-03-01T14:44:03;8.57;;;6.10;;
23282;SDS011;11810;51.178;3.878;2023-03-01T14:46:33;7.30;;;5.90;;
23282;SDS011;11810;51.178;3.878;2023-03-01T14:49:03;8.70;;;6.88;;
23282;SDS011;11810;51.178;3.878;2023-03-01T14:51:37;9.77;;;7.10;;
23282;SDS011;11810;51.178;3.878;2023-03-01T14:54:10;12.27;;;6.82;;
23282;SDS011;11810;51.178;3.878;2023-03-01T14:56:46;9.88;;;7.10;;
23282;SDS011;11810;51.178;3.878;2023-03-01T14:59:12;8.88;;;6.90;;
23282;SDS011;11810;51.178;3.878;2023-03-01T15:01:39;9.88;;;6.97;;
23282;SDS011;11810;51.178;3.878;2023-03-01T15:04:08;10.43;;;6.35;;
23282;SDS011;11810;51.178;3.878;2023-03-01T15:06:37;9.48;;;6.82;;
23282;SDS011;11810;51.178;3.878;2023-03-01T15:09:03;11.75;;;9.25;;
23282;SDS011;11810;51.178;3.878;2023-03-01T15:11:30;9.68;;;7.63;;
23282;SDS011;11810;51.178;3.878;2023-03-01T15:13:57;11.90;;;6.97;;
23282;SDS011;11810;51.178;3.878;2023-03-01T15:19:02;11.65;;;7.88;;
23282;SDS011;11810;51.178;3.878;2023-03-01T15:21:37;9.65;;;7.53;;
23282;SDS011;11810;51.178;3.878;2023-03-01T15:26:38;14.10;;;7.35;;
23282;SDS011;11810;51.178;3.878;2023-03-01T15:29:20;11.05;;;7.72;;
23282;SDS011;11810;51.178;3.878;2023-03-01T15:31:58;12.30;;;7.55;;
23282;SDS011;11810;51.178;3.878;2023-03-01T15:34:31;10.23;;;7.75;;
23282;SDS011;11810;51.178;3.878;2023-03-01T15:37:33;10.73;;;7.93;;
23282;SDS011;11810;51.178;3.878;2023-03-01T15:40:02;11.68;;;7.85;;
23282;SDS011;11810;51.178;3.878;2023-03-01T15:47:52;20.42;;;13.93;;
23282;SDS011;11810;51.178;3.878;2023-03-01T15:52:52;20.88;;;11.50;;
23282;SDS011;11810;51.178;3.878;2023-03-01T15:57:48;14.80;;;8.65;;
23282;SDS011;11810;51.178;3.878;2023-03-01T16:00:15;10.43;;;7.63;;
23282;SDS011;11810;51.178;3.878;2023-03-01T16:02:43;13.05;;;9.23;;
23282;SDS011;11810;51.178;3.878;2023-03-01T16:05:20;12.77;;;8.88;;
23282;SDS011;11810;51.178;3.878;2023-03-01T16:07:48;14.02;;;7.75;;
23282;SDS011;11810;51.178;3.878;2023-03-01T16:10:15;11.88;;;7.80;;
23282;SDS011;11810;51.178;3.878;2023-03-01T16:12:41;11.75;;;8.45;;
23282;SDS011;11810;51.178;3.878;2023-03-01T16:15:17;14.82;;;8.82;;
23282;SDS011;11810;51.178;3.878;2023-03-01T16:17:49;10.38;;;8.05;;
23282;SDS011;11810;51.178;3.878;2023-03-01T16:20:15;17.42;;;9.57;;
23282;SDS011;11810;51.178;3.878;2023-03-01T16:22:42;13.40;;;9.10;;
23282;SDS011;11810;51.178;3.878;2023-03-01T16:25:09;14.35;;;8.93;;
23282;SDS011;11810;51.178;3.878;2023-03-01T16:27:36;11.13;;;7.97;;
23282;SDS011;11810;51.178;3.878;2023-03-01T16:30:03;14.25;;;8.52;;
23282;SDS011;11810;51.178;3.878;2023-03-01T16:32:30;12.70;;;8.32;;
23282;SDS011;11810;51.178;3.878;2023-03-01T16:34:56;10.43;;;8.18;;
23282;SDS011;11810;51.178;3.878;2023-03-01T16:37:22;13.43;;;8.20;;
23282;SDS011;11810;51.178;3.878;2023-03-01T16:39:48;12.95;;;8.13;;
23282;SDS011;11810;51.178;3.878;2023-03-01T16:42:18;13.70;;;8.20;;
23282;SDS011;11810;51.178;3.878;2023-03-01T16:44:44;13.70;;;8.55;;
23282;SDS011;11810;51.178;3.878;2023-03-01T16:47:10;16.30;;;9.10;;
23282;SDS011;11810;51.178;3.878;2023-03-01T16:49:36;16.23;;;8.52;;
23282;SDS011;11810;51.178;3.878;2023-03-01T16:52:02;11.77;;;8.20;;
23282;SDS011;11810;51.178;3.878;2023-03-01T16:54:28;13.65;;;8.20;;
23282;SDS011;11810;51.178;3.878;2023-03-01T16:56:54;13.00;;;8.57;;
23282;SDS011;11810;51.178;3.878;2023-03-01T16:59:20;13.05;;;8.27;;
23282;SDS011;11810;51.178;3.878;2023-03-01T17:01:46;12.48;;;8.02;;
23282;SDS011;11810;51.178;3.878;2023-03-01T17:04:12;13.20;;;8.73;;
23282;SDS011;11810;51.178;3.878;2023-03-01T17:06:38;15.32;;;8.85;;
23282;SDS011;11810;51.178;3.878;2023-03-01T17:09:04;11.35;;;8.05;;
23282;SDS011;11810;51.178;3.878;2023-03-01T17:11:30;13.48;;;8.60;;
23282;SDS011;11810;51.178;3.878;2023-03-01T17:13:56;12.63;;;8.15;;
23282;SDS011;11810;51.178;3.878;2023-03-01T17:16:22;12.57;;;8.50;;
23282;SDS011;11810;51.178;3.878;2023-03-01T17:18:48;13.68;;;9.35;;
23282;SDS011;11810;51.178;3.878;2023-03-01T17:21:14;14.82;;;8.98;;
23282;SDS011;11810;51.178;3.878;2023-03-01T17:24:51;12.00;;;8.55;;
23282;SDS011;11810;51.178;3.878;2023-03-01T17:27:17;13.88;;;8.73;;
23282;SDS011;11810;51.178;3.878;2023-03-01T17:29:43;16.17;;;9.65;;
23282;SDS011;11810;51.178;3.878;2023-03-01T17:32:09;13.88;;;9.63;;
23282;SDS011;11810;51.178;3.878;2023-03-01T17:34:35;16.23;;;9.43;;
23282;SDS011;11810;51.178;3.878;2023-03-01T17:37:01;14.90;;;9.32;;
23282;SDS011;11810;51.178;3.878;2023-03-01T17:39:27;14.05;;;9.15;;
23282;SDS011;11810;51.178;3.878;2023-03-01T17:42:00;19.67;;;9.52;;
23282;SDS011;11810;51.178;3.878;2023-03-01T17:47:53;13.93;;;8.85;;
23282;SDS011;11810;51.178;3.878;2023-03-01T17:50:19;20.60;;;9.95;;
23282;SDS011;11810;51.178;3.878;2023-03-01T17:52:45;22.17;;;11.02;;
23282;SDS011;11810;51.178;3.878;2023-03-01T17:55:11;23.88;;;10.98;;
23282;SDS011;11810;51.178;3.878;2023-03-01T17:57:38;23.92;;;10.85;;
23282;SDS011;11810;51.178;3.878;2023-03-01T18:00:05;17.50;;;10.10;;
23282;SDS011;11810;51.178;3.878;2023-03-01T18:02:32;15.10;;;9.70;;
23282;SDS011;11810;51.178;3.878;2023-03-01T18:04:58;13.48;;;9.75;;
23282;SDS011;11810;51.178;3.878;2023-03-01T18:07:27;13.13;;;9.48;;
23282;SDS011;11810;51.178;3.878;2023-03-01T18:09:54;15.20;;;9.30;;
23282;SDS011;11810;51.178;3.878;2023-03-01T18:12:20;15.10;;;9.55;;